sensor_id;sensor_type;location;lat;lon;timestamp;P1;durP1;ratioP1;P2;durP2;ratioP2
527;SDS011;250;47.712;7.508;2022-09-03T00:00:22;3.70;;;3.07;;
527;SDS011;250;47.712;7.508;2022-09-03T00:02:51;4.07;;;2.77;;
527;SDS011;250;47.712;7.508;2022-09-03T00:05:28;4.20;;;2.73;;
527;SDS011;250;47.712;7.508;2022-09-03T00:08:03;3.00;;;2.70;;
527;SDS011;250;47.712;7.508;2022-09-03T00:10:38;5.10;;;2.90;;
527;SDS011;250;47.712;7.508;2022-09-03T00:13:11;4.23;;;2.83;;
527;SDS011;250;47.712;7.508;2022-09-03T00:15:41;3.23;;;2.80;;
527;SDS011;250;47.712;7.508;2022-09-03T00:18:09;5.33;;;2.67;;
527;SDS011;250;47.712;7.508;2022-09-03T00:20:42;5.27;;;3.10;;
527;SDS011;250;47.712;7.508;2022-09-03T00:23:13;4.90;;;3.40;;
527;SDS011;250;47.712;7.508;2022-09-03T00:25:46;3.73;;;3.10;;
527;SDS011;250;47.712;7.508;2022-09-03T00:28:18;3.77;;;3.03;;
527;SDS011;250;47.712;7.508;2022-09-03T00:30:50;5.73;;;2.83;;
527;SDS011;250;47.712;7.508;2022-09-03T00:33:23;3.27;;;2.60;;
527;SDS011;250;47.712;7.508;2022-09-03T00:36:01;6.53;;;2.77;;
527;SDS011;250;47.712;7.508;2022-09-03T00:38:32;4.17;;;3.40;;
527;SDS011;250;47.712;7.508;2022-09-03T00:41:02;3.77;;;2.53;;
527;SDS011;250;47.712;7.508;2022-09-03T00:43:39;4.10;;;2.97;;
527;SDS011;250;47.712;7.508;2022-09-03T00:46:18;3.50;;;2.80;;
527;SDS011;250;47.712;7.508;2022-09-03T00:48:56;7.07;;;2.70;;
527;SDS011;250;47.712;7.508;2022-09-03T00:51:48;5.03;;;2.50;;
527;SDS011;250;47.712;7.508;2022-09-03T00:54:23;3.20;;;2.90;;
527;SDS011;250;47.712;7.508;2022-09-03T00:57:00;4.30;;;2.90;;
527;SDS011;250;47.712;7.508;2022-09-03T00:59:37;3.40;;;3.10;;
527;SDS011;250;47.712;7.508;2022-09-03T01:02:11;2.60;;;2.23;;
527;SDS011;250;47.712;7.508;2022-09-03T01:04:48;3.03;;;2.47;;
527;SDS011;250;47.712;7.508;2022-09-03T01:07:30;4.07;;;2.90;;
527;SDS011;250;47.712;7.508;2022-09-03T01:10:07;2.70;;;2.40;;
527;SDS011;250;47.712;7.508;2022-09-03T01:12:46;2.73;;;2.40;;
527;SDS011;250;47.712;7.508;2022-09-03T01:15:21;2.87;;;2.50;;
527;SDS011;250;47.712;7.508;2022-09-03T01:17:59;2.93;;;2.47;;
527;SDS011;250;47.712;7.508;2022-09-03T01:20:37;4.40;;;2.27;;
527;SDS011;250;47.712;7.508;2022-09-03T01:23:26;2.73;;;2.50;;
527;SDS011;250;47.712;7.508;2022-09-03T01:26:22;4.07;;;2.77;;
527;SDS011;250;47.712;7.508;2022-09-03T01:29:01;5.57;;;3.50;;
527;SDS011;250;47.712;7.508;2022-09-03T01:31:37;3.87;;;2.87;;
527;SDS011;250;47.712;7.508;2022-09-03T01:34:14;6.07;;;2.70;;
527;SDS011;250;47.712;7.508;2022-09-03T01:36:53;3.20;;;2.53;;
527;SDS011;250;47.712;7.508;2022-09-03T01:39:30;4.10;;;2.70;;
527;SDS011;250;47.712;7.508;2022-09-03T01:42:06;3.60;;;2.60;;
527;SDS011;250;47.712;7.508;2022-09-03T01:44:50;3.30;;;2.53;;
527;SDS011;250;47.712;7.508;2022-09-03T01:47:27;2.87;;;2.57;;
527;SDS011;250;47.712;7.508;2022-09-03T01:50:03;3.60;;;3.00;;
527;SDS011;250;47.712;7.508;2022-09-03T01:52:37;4.40;;;2.80;;
527;SDS011;250;47.712;7.508;2022-09-03T01:55:13;3.80;;;2.57;;
527;SDS011;250;47.712;7.508;2022-09-03T01:57:52;4.60;;;2.90;;
527;SDS011;250;47.712;7.508;2022-09-03T02:00:24;7.03;;;3.30;;
527;SDS011;250;47.712;7.508;2022-09-03T02:02:53;4.00;;;3.20;;
527;SDS011;250;47.712;7.508;2022-09-03T02:05:20;4.20;;;3.80;;
527;SDS011;250;47.712;7.508;2022-09-03T02:07:49;4.30;;;3.87;;
527;SDS011;250;47.712;7.508;2022-09-03T02:10:25;3.93;;;3.53;;
527;SDS011;250;47.712;7.508;2022-09-03T02:12:56;4.33;;;3.70;;
527;SDS011;250;47.712;7.508;2022-09-03T02:15:28;8.53;;;5.93;;
527;SDS011;250;47.712;7.508;2022-09-03T02:17:59;4.33;;;3.63;;
527;SDS011;250;47.712;7.508;2022-09-03T02:20:28;5.83;;;4.10;;
527;SDS011;250;47.712;7.508;2022-09-03T02:22:57;5.30;;;3.93;;
527;SDS011;250;47.712;7.508;2022-09-03T02:25:28;5.87;;;4.03;;
527;SDS011;250;47.712;7.508;2022-09-03T02:27:58;4.07;;;3.10;;
527;SDS011;250;47.712;7.508;2022-09-03T02:30:28;6.43;;;4.20;;
527;SDS011;250;47.712;7.508;2022-09-03T02:32:55;5.27;;;4.77;;
527;SDS011;250;47.712;7.508;2022-09-03T02:35:22;5.60;;;4.30;;
527;SDS011;250;47.712;7.508;2022-09-03T02:37:49;4.07;;;3.57;;
527;SDS011;250;47.712;7.508;2022-09-03T02:40:16;4.60;;;4.20;;
527;SDS011;250;47.712;7.508;2022-09-03T02:42:44;4.47;;;4.07;;
527;SDS011;250;47.712;7.508;2022-09-03T02:45:18;5.10;;;3.50;;
527;SDS011;250;47.712;7.508;2022-09-03T02:47:52;6.20;;;3.40;;
527;SDS011;250;47.712;7.508;2022-09-03T02:50:22;4.03;;;3.30;;
527;SDS011;250;47.712;7.508;2022-09-03T02:52:49;6.00;;;4.40;;
527;SDS011;250;47.712;7.508;2022-09-03T02:55:17;4.57;;;3.60;;
527;SDS011;250;47.712;7.508;2022-09-03T02:57:44;4.37;;;3.60;;
527;SDS011;250;47.712;7.508;2022-09-03T03:00:12;4.40;;;3.67;;
527;SDS011;250;47.712;7.508;2022-09-03T03:02:39;4.17;;;3.77;;
527;SDS011;250;47.712;7.508;2022-09-03T03:05:08;4.30;;;2.87;;
527;SDS011;250;47.712;7.508;2022-09-03T03:07:39;4.20;;;3.80;;
527;SDS011;250;47.712;7.508;2022-09-03T03:10:07;4.47;;;3.00;;
527;SDS011;250;47.712;7.508;2022-09-03T03:12:34;5.97;;;3.80;;
527;SDS011;250;47.712;7.508;2022-09-03T03:15:02;3.40;;;3.10;;
527;SDS011;250;47.712;7.508;2022-09-03T03:17:29;3.97;;;3.30;;
527;SDS011;250;47.712;7.508;2022-09-03T03:19:56;7.40;;;3.30;;
527;SDS011;250;47.712;7.508;2022-09-03T03:22:24;5.50;;;3.13;;
527;SDS011;250;47.712;7.508;2022-09-03T03:24:51;4.43;;;3.40;;
527;SDS011;250;47.712;7.508;2022-09-03T03:27:21;4.30;;;3.63;;
527;SDS011;250;47.712;7.508;2022-09-03T03:29:48;5.37;;;3.57;;
527;SDS011;250;47.712;7.508;2022-09-03T03:32:16;6.10;;;4.53;;
527;SDS011;250;47.712;7.508;2022-09-03T03:34:43;4.70;;;3.50;;
527;SDS011;250;47.712;7.508;2022-09-03T03:37:10;5.30;;;3.50;;
527;SDS011;250;47.712;7.508;2022-09-03T03:39:38;3.63;;;3.30;;
527;SDS011;250;47.712;7.508;2022-09-03T03:42:05;3.90;;;3.20;;
527;SDS011;250;47.712;7.508;2022-09-03T03:44:33;4.70;;;3.97;;
527;SDS011;250;47.712;7.508;2022-09-03T03:47:00;4.47;;;3.43;;
527;SDS011;250;47.712;7.508;2022-09-03T03:49:30;4.00;;;3.60;;
527;SDS011;250;47.712;7.508;2022-09-03T03:51:57;4.13;;;3.37;;
527;SDS011;250;47.712;7.508;2022-09-03T03:54:24;6.40;;;3.50;;
527;SDS011;250;47.712;7.508;2022-09-03T03:56:52;5.10;;;3.30;;
527;SDS011;250;47.712;7.508;2022-09-03T03:59:19;3.43;;;3.13;;
527;SDS011;250;47.712;7.508;2022-09-03T04:01:46;4.20;;;3.80;;
527;SDS011;250;47.712;7.508;2022-09-03T04:04:15;4.30;;;3.27;;
527;SDS011;250;47.712;7.508;2022-09-03T04:06:42;4.20;;;3.77;;
527;SDS011;250;47.712;7.508;2022-09-03T04:09:09;3.57;;;3.27;;
527;SDS011;250;47.712;7.508;2022-09-03T04:11:36;4.00;;;3.60;;
527;SDS011;250;47.712;7.508;2022-09-03T04:14:04;5.23;;;3.37;;
527;SDS011;250;47.712;7.508;2022-09-03T04:16:31;3.60;;;3.00;;
527;SDS011;250;47.712;7.508;2022-09-03T04:18:58;3.87;;;3.47;;
527;SDS011;250;47.712;7.508;2022-09-03T04:21:26;4.10;;;3.70;;
527;SDS011;250;47.712;7.508;2022-09-03T04:23:54;4.63;;;3.63;;
527;SDS011;250;47.712;7.508;2022-09-03T04:26:22;4.03;;;3.63;;
527;SDS011;250;47.712;7.508;2022-09-03T04:28:52;3.80;;;3.50;;
527;SDS011;250;47.712;7.508;2022-09-03T04:31:20;4.27;;;3.87;;
527;SDS011;250;47.712;7.508;2022-09-03T04:33:47;3.70;;;3.37;;
527;SDS011;250;47.712;7.508;2022-09-03T04:36:15;3.80;;;3.10;;
527;SDS011;250;47.712;7.508;2022-09-03T04:38:44;5.27;;;3.63;;
527;SDS011;250;47.712;7.508;2022-09-03T04:41:13;7.40;;;3.87;;
527;SDS011;250;47.712;7.508;2022-09-03T04:43:42;6.33;;;3.47;;
527;SDS011;250;47.712;7.508;2022-09-03T04:46:10;5.00;;;3.70;;
527;SDS011;250;47.712;7.508;2022-09-03T04:48:40;4.73;;;3.17;;
527;SDS011;250;47.712;7.508;2022-09-03T04:51:09;8.50;;;3.00;;
527;SDS011;250;47.712;7.508;2022-09-03T04:53:38;3.70;;;3.27;;
527;SDS011;250;47.712;7.508;2022-09-03T04:56:10;3.10;;;2.70;;
527;SDS011;250;47.712;7.508;2022-09-03T04:58:39;3.87;;;3.13;;
527;SDS011;250;47.712;7.508;2022-09-03T05:01:08;6.03;;;3.10;;
527;SDS011;250;47.712;7.508;2022-09-03T05:03:35;3.90;;;3.50;;
527;SDS011;250;47.712;7.508;2022-09-03T05:06:04;4.90;;;3.60;;
527;SDS011;250;47.712;7.508;2022-09-03T05:08:32;3.70;;;3.40;;
527;SDS011;250;47.712;7.508;2022-09-03T05:11:01;3.17;;;2.87;;
527;SDS011;250;47.712;7.508;2022-09-03T05:13:28;3.30;;;2.77;;
527;SDS011;250;47.712;7.508;2022-09-03T05:15:57;6.53;;;3.10;;
527;SDS011;250;47.712;7.508;2022-09-03T05:18:26;3.93;;;2.83;;
527;SDS011;250;47.712;7.508;2022-09-03T05:20:57;4.07;;;3.67;;
527;SDS011;250;47.712;7.508;2022-09-03T05:23:26;3.57;;;3.27;;
527;SDS011;250;47.712;7.508;2022-09-03T05:25:54;3.90;;;3.10;;
527;SDS011;250;47.712;7.508;2022-09-03T05:28:22;3.10;;;2.53;;
527;SDS011;250;47.712;7.508;2022-09-03T05:30:57;3.10;;;2.70;;
527;SDS011;250;47.712;7.508;2022-09-03T05:33:25;3.30;;;3.00;;
527;SDS011;250;47.712;7.508;2022-09-03T05:35:53;3.70;;;2.80;;
527;SDS011;250;47.712;7.508;2022-09-03T05:38:20;3.90;;;3.43;;
527;SDS011;250;47.712;7.508;2022-09-03T05:40:48;3.73;;;2.57;;
527;SDS011;250;47.712;7.508;2022-09-03T05:43:15;4.23;;;2.73;;
527;SDS011;250;47.712;7.508;2022-09-03T05:45:42;3.10;;;2.67;;
527;SDS011;250;47.712;7.508;2022-09-03T05:48:09;3.33;;;2.60;;
527;SDS011;250;47.712;7.508;2022-09-03T05:50:36;3.93;;;2.70;;
527;SDS011;250;47.712;7.508;2022-09-03T05:53:03;3.10;;;2.80;;
527;SDS011;250;47.712;7.508;2022-09-03T05:55:30;3.20;;;2.83;;
527;SDS011;250;47.712;7.508;2022-09-03T05:57:59;2.73;;;2.37;;
527;SDS011;250;47.712;7.508;2022-09-03T06:00:26;3.87;;;3.00;;
527;SDS011;250;47.712;7.508;2022-09-03T06:02:53;3.40;;;2.70;;
527;SDS011;250;47.712;7.508;2022-09-03T06:05:20;6.33;;;2.60;;
527;SDS011;250;47.712;7.508;2022-09-03T06:07:47;2.63;;;2.07;;
527;SDS011;250;47.712;7.508;2022-09-03T06:10:14;3.17;;;2.50;;
527;SDS011;250;47.712;7.508;2022-09-03T06:12:42;2.70;;;2.40;;
527;SDS011;250;47.712;7.508;2022-09-03T06:15:14;2.90;;;1.83;;
527;SDS011;250;47.712;7.508;2022-09-03T06:17:41;2.80;;;2.40;;
527;SDS011;250;47.712;7.508;2022-09-03T06:20:09;3.50;;;2.87;;
527;SDS011;250;47.712;7.508;2022-09-03T06:22:36;2.90;;;2.20;;
527;SDS011;250;47.712;7.508;2022-09-03T06:25:03;2.77;;;2.07;;
527;SDS011;250;47.712;7.508;2022-09-03T06:27:31;3.43;;;2.40;;
527;SDS011;250;47.712;7.508;2022-09-03T06:29:58;2.90;;;2.60;;
527;SDS011;250;47.712;7.508;2022-09-03T06:32:27;3.20;;;2.40;;
527;SDS011;250;47.712;7.508;2022-09-03T06:34:54;2.90;;;2.30;;
527;SDS011;250;47.712;7.508;2022-09-03T06:37:21;2.30;;;1.90;;
527;SDS011;250;47.712;7.508;2022-09-03T06:39:48;2.73;;;2.40;;
527;SDS011;250;47.712;7.508;2022-09-03T06:42:15;7.30;;;1.90;;
527;SDS011;250;47.712;7.508;2022-09-03T06:44:42;3.10;;;2.43;;
527;SDS011;250;47.712;7.508;2022-09-03T06:47:10;4.30;;;2.60;;
527;SDS011;250;47.712;7.508;2022-09-03T06:49:38;3.07;;;2.37;;
527;SDS011;250;47.712;7.508;2022-09-03T06:52:05;2.47;;;2.10;;
527;SDS011;250;47.712;7.508;2022-09-03T06:54:33;3.80;;;2.63;;
527;SDS011;250;47.712;7.508;2022-09-03T06:57:00;3.20;;;2.33;;
527;SDS011;250;47.712;7.508;2022-09-03T06:59:27;2.40;;;2.07;;
527;SDS011;250;47.712;7.508;2022-09-03T07:01:54;3.30;;;2.27;;
527;SDS011;250;47.712;7.508;2022-09-03T07:04:23;2.77;;;2.47;;
527;SDS011;250;47.712;7.508;2022-09-03T07:06:53;3.77;;;2.50;;
527;SDS011;250;47.712;7.508;2022-09-03T07:09:20;6.03;;;2.80;;
527;SDS011;250;47.712;7.508;2022-09-03T07:11:46;3.17;;;2.83;;
527;SDS011;250;47.712;7.508;2022-09-03T07:14:14;3.00;;;2.43;;
527;SDS011;250;47.712;7.508;2022-09-03T07:16:42;3.90;;;2.60;;
527;SDS011;250;47.712;7.508;2022-09-03T07:19:10;3.33;;;2.30;;
527;SDS011;250;47.712;7.508;2022-09-03T07:21:37;3.70;;;2.27;;
527;SDS011;250;47.712;7.508;2022-09-03T07:24:07;3.30;;;2.60;;
527;SDS011;250;47.712;7.508;2022-09-03T07:26:36;3.33;;;2.50;;
527;SDS011;250;47.712;7.508;2022-09-03T07:29:04;3.93;;;2.63;;
527;SDS011;250;47.712;7.508;2022-09-03T07:31:33;2.70;;;2.10;;
527;SDS011;250;47.712;7.508;2022-09-03T07:34:02;3.30;;;2.30;;
527;SDS011;250;47.712;7.508;2022-09-03T07:36:34;2.73;;;2.33;;
527;SDS011;250;47.712;7.508;2022-09-03T07:39:02;5.47;;;2.53;;
527;SDS011;250;47.712;7.508;2022-09-03T07:41:31;3.07;;;2.63;;
527;SDS011;250;47.712;7.508;2022-09-03T07:43:58;3.63;;;2.60;;
527;SDS011;250;47.712;7.508;2022-09-03T07:46:30;2.83;;;1.87;;
527;SDS011;250;47.712;7.508;2022-09-03T07:48:59;5.13;;;2.87;;
527;SDS011;250;47.712;7.508;2022-09-03T07:51:28;2.80;;;1.77;;
527;SDS011;250;47.712;7.508;2022-09-03T07:53:57;2.60;;;1.80;;
527;SDS011;250;47.712;7.508;2022-09-03T07:56:26;3.10;;;2.33;;
527;SDS011;250;47.712;7.508;2022-09-03T07:58:56;2.87;;;2.20;;
527;SDS011;250;47.712;7.508;2022-09-03T08:01:24;5.70;;;2.53;;
527;SDS011;250;47.712;7.508;2022-09-03T08:03:53;2.33;;;1.83;;
527;SDS011;250;47.712;7.508;2022-09-03T08:06:21;2.40;;;1.90;;
527;SDS011;250;47.712;7.508;2022-09-03T08:08:53;2.13;;;1.77;;
527;SDS011;250;47.712;7.508;2022-09-03T08:11:22;3.63;;;1.70;;
527;SDS011;250;47.712;7.508;2022-09-03T08:13:52;2.63;;;1.93;;
527;SDS011;250;47.712;7.508;2022-09-03T08:16:23;4.30;;;2.00;;
527;SDS011;250;47.712;7.508;2022-09-03T08:18:50;9.00;;;2.20;;
527;SDS011;250;47.712;7.508;2022-09-03T08:21:17;3.33;;;2.70;;
527;SDS011;250;47.712;7.508;2022-09-03T08:23:45;2.60;;;1.93;;
527;SDS011;250;47.712;7.508;2022-09-03T08:26:14;4.90;;;2.67;;
527;SDS011;250;47.712;7.508;2022-09-03T08:28:42;3.10;;;2.50;;
527;SDS011;250;47.712;7.508;2022-09-03T08:31:11;4.90;;;2.50;;
527;SDS011;250;47.712;7.508;2022-09-03T08:33:42;2.93;;;2.37;;
527;SDS011;250;47.712;7.508;2022-09-03T08:36:11;4.33;;;2.63;;
527;SDS011;250;47.712;7.508;2022-09-03T08:38:39;4.97;;;2.93;;
527;SDS011;250;47.712;7.508;2022-09-03T08:41:09;4.37;;;3.27;;
527;SDS011;250;47.712;7.508;2022-09-03T08:46:47;5.03;;;2.87;;
527;SDS011;250;47.712;7.508;2022-09-03T08:49:19;4.23;;;3.23;;
527;SDS011;250;47.712;7.508;2022-09-03T08:51:52;5.20;;;2.90;;
527;SDS011;250;47.712;7.508;2022-09-03T08:54:23;5.93;;;3.00;;
527;SDS011;250;47.712;7.508;2022-09-03T08:56:53;5.80;;;3.10;;
527;SDS011;250;47.712;7.508;2022-09-03T08:59:22;4.23;;;3.40;;
527;SDS011;250;47.712;7.508;2022-09-03T09:01:51;3.57;;;3.23;;
527;SDS011;250;47.712;7.508;2022-09-03T09:04:26;4.03;;;3.63;;
527;SDS011;250;47.712;7.508;2022-09-03T09:07:03;4.40;;;3.20;;
527;SDS011;250;47.712;7.508;2022-09-03T09:09:39;5.10;;;3.90;;
527;SDS011;250;47.712;7.508;2022-09-03T09:12:15;5.73;;;4.00;;
527;SDS011;250;47.712;7.508;2022-09-03T09:14:53;5.50;;;4.30;;
527;SDS011;250;47.712;7.508;2022-09-03T09:17:34;5.50;;;4.30;;
527;SDS011;250;47.712;7.508;2022-09-03T09:20:14;5.10;;;3.60;;
527;SDS011;250;47.712;7.508;2022-09-03T09:22:51;4.60;;;4.20;;
527;SDS011;250;47.712;7.508;2022-09-03T09:25:22;2.53;;;2.10;;
527;SDS011;250;47.712;7.508;2022-09-03T09:27:51;2.80;;;1.93;;
527;SDS011;250;47.712;7.508;2022-09-03T09:30:24;4.67;;;1.70;;
527;SDS011;250;47.712;7.508;2022-09-03T09:32:51;2.40;;;1.50;;
527;SDS011;250;47.712;7.508;2022-09-03T09:35:21;2.03;;;1.37;;
527;SDS011;250;47.712;7.508;2022-09-03T09:37:49;2.40;;;1.73;;
527;SDS011;250;47.712;7.508;2022-09-03T09:40:24;2.93;;;1.30;;
527;SDS011;250;47.712;7.508;2022-09-03T09:43:05;3.00;;;1.70;;
527;SDS011;250;47.712;7.508;2022-09-03T09:45:34;2.40;;;1.90;;
527;SDS011;250;47.712;7.508;2022-09-03T09:48:06;2.50;;;1.47;;
527;SDS011;250;47.712;7.508;2022-09-03T09:50:40;2.67;;;1.70;;
527;SDS011;250;47.712;7.508;2022-09-03T09:53:08;3.47;;;1.70;;
527;SDS011;250;47.712;7.508;2022-09-03T09:55:50;2.20;;;1.30;;
527;SDS011;250;47.712;7.508;2022-09-03T09:58:19;2.50;;;1.20;;
527;SDS011;250;47.712;7.508;2022-09-03T10:01:01;2.87;;;1.30;;
527;SDS011;250;47.712;7.508;2022-09-03T10:03:38;3.43;;;1.10;;
527;SDS011;250;47.712;7.508;2022-09-03T10:06:08;3.27;;;1.50;;
527;SDS011;250;47.712;7.508;2022-09-03T10:09:04;3.63;;;1.97;;
527;SDS011;250;47.712;7.508;2022-09-03T10:11:33;3.87;;;2.20;;
527;SDS011;250;47.712;7.508;2022-09-03T10:14:05;2.50;;;1.53;;
527;SDS011;250;47.712;7.508;2022-09-03T10:16:39;2.40;;;1.83;;
527;SDS011;250;47.712;7.508;2022-09-03T10:19:15;4.10;;;1.93;;
527;SDS011;250;47.712;7.508;2022-09-03T10:21:46;3.70;;;1.60;;
527;SDS011;250;47.712;7.508;2022-09-03T10:24:28;3.07;;;1.70;;
527;SDS011;250;47.712;7.508;2022-09-03T10:27:05;6.00;;;1.97;;
527;SDS011;250;47.712;7.508;2022-09-03T10:29:36;2.37;;;1.53;;
527;SDS011;250;47.712;7.508;2022-09-03T10:32:09;9.17;;;2.03;;
527;SDS011;250;47.712;7.508;2022-09-03T10:34:48;3.53;;;1.90;;
527;SDS011;250;47.712;7.508;2022-09-03T10:37:28;5.10;;;1.73;;
527;SDS011;250;47.712;7.508;2022-09-03T10:40:10;3.90;;;2.37;;
527;SDS011;250;47.712;7.508;2022-09-03T10:42:50;3.43;;;1.70;;
527;SDS011;250;47.712;7.508;2022-09-03T10:45:28;2.93;;;1.67;;
527;SDS011;250;47.712;7.508;2022-09-03T10:48:12;4.30;;;1.83;;
527;SDS011;250;47.712;7.508;2022-09-03T10:50:50;2.80;;;1.77;;
527;SDS011;250;47.712;7.508;2022-09-03T10:56:15;2.40;;;1.43;;
527;SDS011;250;47.712;7.508;2022-09-03T10:58:53;2.10;;;1.50;;
527;SDS011;250;47.712;7.508;2022-09-03T11:01:31;3.63;;;1.47;;
527;SDS011;250;47.712;7.508;2022-09-03T11:04:13;5.47;;;1.27;;
527;SDS011;250;47.712;7.508;2022-09-03T11:06:51;2.20;;;1.20;;
527;SDS011;250;47.712;7.508;2022-09-03T11:09:22;1.70;;;1.10;;
527;SDS011;250;47.712;7.508;2022-09-03T11:11:54;3.40;;;1.30;;
527;SDS011;250;47.712;7.508;2022-09-03T11:14:29;2.07;;;1.37;;
527;SDS011;250;47.712;7.508;2022-09-03T11:17:02;2.47;;;1.20;;
527;SDS011;250;47.712;7.508;2022-09-03T11:19:33;3.97;;;1.43;;
527;SDS011;250;47.712;7.508;2022-09-03T11:22:06;3.47;;;1.20;;
527;SDS011;250;47.712;7.508;2022-09-03T11:24:36;1.90;;;1.23;;
527;SDS011;250;47.712;7.508;2022-09-03T11:27:09;1.93;;;1.10;;
527;SDS011;250;47.712;7.508;2022-09-03T11:29:49;1.90;;;1.10;;
527;SDS011;250;47.712;7.508;2022-09-03T11:32:21;2.90;;;1.03;;
527;SDS011;250;47.712;7.508;2022-09-03T11:34:52;1.73;;;1.10;;
527;SDS011;250;47.712;7.508;2022-09-03T11:37:21;2.30;;;1.43;;
527;SDS011;250;47.712;7.508;2022-09-03T11:39:54;2.20;;;1.30;;
527;SDS011;250;47.712;7.508;2022-09-03T11:42:28;2.40;;;1.43;;
527;SDS011;250;47.712;7.508;2022-09-03T11:45:14;2.93;;;1.30;;
527;SDS011;250;47.712;7.508;2022-09-03T11:47:47;2.40;;;1.30;;
527;SDS011;250;47.712;7.508;2022-09-03T11:50:17;1.90;;;1.20;;
527;SDS011;250;47.712;7.508;2022-09-03T11:52:47;2.10;;;0.90;;
527;SDS011;250;47.712;7.508;2022-09-03T11:55:27;1.60;;;1.17;;
527;SDS011;250;47.712;7.508;2022-09-03T11:57:57;2.07;;;1.27;;
527;SDS011;250;47.712;7.508;2022-09-03T12:00:24;2.10;;;1.20;;
527;SDS011;250;47.712;7.508;2022-09-03T12:02:53;3.20;;;1.13;;
527;SDS011;250;47.712;7.508;2022-09-03T12:05:24;1.97;;;1.33;;
527;SDS011;250;47.712;7.508;2022-09-03T12:08:12;3.03;;;1.37;;
527;SDS011;250;47.712;7.508;2022-09-03T12:10:54;3.10;;;1.30;;
527;SDS011;250;47.712;7.508;2022-09-03T12:13:35;1.77;;;1.20;;
527;SDS011;250;47.712;7.508;2022-09-03T12:19:06;3.20;;;1.47;;
527;SDS011;250;47.712;7.508;2022-09-03T12:21:38;1.80;;;1.20;;
527;SDS011;250;47.712;7.508;2022-09-03T12:24:06;4.03;;;1.00;;
527;SDS011;250;47.712;7.508;2022-09-03T12:26:39;2.20;;;1.27;;
527;SDS011;250;47.712;7.508;2022-09-03T12:29:18;2.77;;;1.50;;
527;SDS011;250;47.712;7.508;2022-09-03T12:31:48;2.70;;;1.50;;
527;SDS011;250;47.712;7.508;2022-09-03T12:34:16;2.70;;;1.50;;
527;SDS011;250;47.712;7.508;2022-09-03T12:36:45;2.20;;;1.40;;
527;SDS011;250;47.712;7.508;2022-09-03T12:39:14;4.03;;;1.40;;
527;SDS011;250;47.712;7.508;2022-09-03T12:41:54;1.67;;;1.23;;
527;SDS011;250;47.712;7.508;2022-09-03T12:44:28;3.40;;;1.47;;
527;SDS011;250;47.712;7.508;2022-09-03T12:47:01;3.50;;;1.67;;
527;SDS011;250;47.712;7.508;2022-09-03T12:49:36;2.10;;;1.40;;
527;SDS011;250;47.712;7.508;2022-09-03T12:52:06;2.63;;;1.77;;
527;SDS011;250;47.712;7.508;2022-09-03T12:54:39;3.23;;;1.97;;
527;SDS011;250;47.712;7.508;2022-09-03T12:57:16;2.10;;;1.77;;
527;SDS011;250;47.712;7.508;2022-09-03T12:59:47;2.83;;;1.60;;
527;SDS011;250;47.712;7.508;2022-09-03T13:02:17;3.03;;;1.63;;
527;SDS011;250;47.712;7.508;2022-09-03T13:04:48;2.40;;;1.60;;
527;SDS011;250;47.712;7.508;2022-09-03T13:07:20;2.03;;;1.50;;
527;SDS011;250;47.712;7.508;2022-09-03T13:09:51;2.50;;;1.77;;
527;SDS011;250;47.712;7.508;2022-09-03T13:12:28;2.60;;;1.70;;
527;SDS011;250;47.712;7.508;2022-09-03T13:15:03;2.37;;;1.50;;
527;SDS011;250;47.712;7.508;2022-09-03T13:17:44;4.70;;;1.90;;
527;SDS011;250;47.712;7.508;2022-09-03T13:20:24;2.60;;;2.10;;
527;SDS011;250;47.712;7.508;2022-09-03T13:23:01;2.80;;;2.03;;
527;SDS011;250;47.712;7.508;2022-09-03T13:25:39;3.00;;;1.70;;
527;SDS011;250;47.712;7.508;2022-09-03T13:28:19;2.23;;;1.87;;
527;SDS011;250;47.712;7.508;2022-09-03T13:31:01;1.97;;;1.53;;
527;SDS011;250;47.712;7.508;2022-09-03T13:33:36;3.53;;;1.67;;
527;SDS011;250;47.712;7.508;2022-09-03T13:36:08;2.23;;;1.90;;
527;SDS011;250;47.712;7.508;2022-09-03T13:38:42;2.73;;;2.10;;
527;SDS011;250;47.712;7.508;2022-09-03T13:41:15;2.67;;;1.70;;
527;SDS011;250;47.712;7.508;2022-09-03T13:44:01;3.03;;;1.63;;
527;SDS011;250;47.712;7.508;2022-09-03T13:46:34;3.63;;;1.70;;
527;SDS011;250;47.712;7.508;2022-09-03T13:49:12;2.00;;;1.30;;
527;SDS011;250;47.712;7.508;2022-09-03T13:52:07;2.70;;;1.77;;
527;SDS011;250;47.712;7.508;2022-09-03T13:54:48;2.53;;;1.60;;
527;SDS011;250;47.712;7.508;2022-09-03T13:57:22;2.13;;;1.93;;
527;SDS011;250;47.712;7.508;2022-09-03T13:59:57;2.50;;;1.60;;
527;SDS011;250;47.712;7.508;2022-09-03T14:02:32;3.40;;;1.97;;
527;SDS011;250;47.712;7.508;2022-09-03T14:05:08;2.00;;;1.40;;
527;SDS011;250;47.712;7.508;2022-09-03T14:07:51;2.77;;;1.47;;
527;SDS011;250;47.712;7.508;2022-09-03T14:10:30;2.60;;;2.03;;
527;SDS011;250;47.712;7.508;2022-09-03T14:13:12;3.50;;;1.77;;
527;SDS011;250;47.712;7.508;2022-09-03T14:15:51;2.73;;;1.73;;
527;SDS011;250;47.712;7.508;2022-09-03T14:18:31;1.80;;;1.53;;
527;SDS011;250;47.712;7.508;2022-09-03T14:21:04;2.40;;;1.50;;
527;SDS011;250;47.712;7.508;2022-09-03T14:23:39;2.17;;;1.57;;
527;SDS011;250;47.712;7.508;2022-09-03T14:26:16;2.20;;;1.57;;
527;SDS011;250;47.712;7.508;2022-09-03T14:28:47;1.90;;;1.30;;
527;SDS011;250;47.712;7.508;2022-09-03T14:31:27;3.03;;;1.60;;
527;SDS011;250;47.712;7.508;2022-09-03T14:34:08;1.80;;;1.37;;
527;SDS011;250;47.712;7.508;2022-09-03T14:36:42;2.40;;;1.60;;
527;SDS011;250;47.712;7.508;2022-09-03T14:39:27;2.00;;;1.53;;
527;SDS011;250;47.712;7.508;2022-09-03T14:42:02;2.37;;;1.67;;
527;SDS011;250;47.712;7.508;2022-09-03T14:48:09;2.27;;;1.47;;
527;SDS011;250;47.712;7.508;2022-09-03T14:51:00;2.73;;;1.70;;
527;SDS011;250;47.712;7.508;2022-09-03T14:53:43;2.83;;;1.70;;
527;SDS011;250;47.712;7.508;2022-09-03T14:56:36;2.57;;;1.77;;
527;SDS011;250;47.712;7.508;2022-09-03T14:59:17;3.00;;;1.50;;
527;SDS011;250;47.712;7.508;2022-09-03T15:02:11;3.43;;;1.93;;
527;SDS011;250;47.712;7.508;2022-09-03T15:05:05;3.20;;;1.80;;
527;SDS011;250;47.712;7.508;2022-09-03T15:07:40;2.43;;;1.97;;
527;SDS011;250;47.712;7.508;2022-09-03T15:10:15;2.17;;;1.63;;
527;SDS011;250;47.712;7.508;2022-09-03T15:12:52;2.27;;;1.87;;
527;SDS011;250;47.712;7.508;2022-09-03T15:15:23;2.10;;;1.80;;
527;SDS011;250;47.712;7.508;2022-09-03T15:18:06;2.40;;;1.60;;
527;SDS011;250;47.712;7.508;2022-09-03T15:20:47;2.70;;;1.83;;
527;SDS011;250;47.712;7.508;2022-09-03T15:23:18;2.00;;;1.50;;
527;SDS011;250;47.712;7.508;2022-09-03T15:26:07;3.10;;;1.80;;
527;SDS011;250;47.712;7.508;2022-09-03T15:28:54;2.87;;;1.80;;
527;SDS011;250;47.712;7.508;2022-09-03T15:31:36;2.07;;;1.30;;
527;SDS011;250;47.712;7.508;2022-09-03T15:34:14;2.80;;;1.70;;
527;SDS011;250;47.712;7.508;2022-09-03T15:36:58;1.90;;;1.47;;
527;SDS011;250;47.712;7.508;2022-09-03T15:39:29;3.10;;;1.67;;
527;SDS011;250;47.712;7.508;2022-09-03T15:42:00;3.00;;;1.80;;
527;SDS011;250;47.712;7.508;2022-09-03T15:44:33;2.20;;;1.80;;
527;SDS011;250;47.712;7.508;2022-09-03T15:47:06;2.10;;;1.40;;
527;SDS011;250;47.712;7.508;2022-09-03T15:49:43;2.90;;;1.67;;
527;SDS011;250;47.712;7.508;2022-09-03T15:52:36;2.60;;;2.13;;
527;SDS011;250;47.712;7.508;2022-09-03T15:55:07;2.10;;;1.67;;
527;SDS011;250;47.712;7.508;2022-09-03T15:57:38;2.77;;;2.10;;
527;SDS011;250;47.712;7.508;2022-09-03T16:00:11;2.00;;;1.40;;
527;SDS011;250;47.712;7.508;2022-09-03T16:02:43;5.03;;;1.70;;
527;SDS011;250;47.712;7.508;2022-09-03T16:05:15;3.63;;;1.60;;
527;SDS011;250;47.712;7.508;2022-09-03T16:07:56;3.37;;;1.77;;
527;SDS011;250;47.712;7.508;2022-09-03T16:10:41;7.13;;;2.27;;
527;SDS011;250;47.712;7.508;2022-09-03T16:13:23;3.27;;;1.90;;
527;SDS011;250;47.712;7.508;2022-09-03T16:16:05;3.73;;;1.90;;
527;SDS011;250;47.712;7.508;2022-09-03T16:18:35;3.27;;;2.87;;
527;SDS011;250;47.712;7.508;2022-09-03T16:21:06;3.50;;;3.00;;
527;SDS011;250;47.712;7.508;2022-09-03T16:23:40;3.13;;;2.23;;
527;SDS011;250;47.712;7.508;2022-09-03T16:26:14;2.87;;;1.77;;
527;SDS011;250;47.712;7.508;2022-09-03T16:28:47;2.70;;;2.17;;
527;SDS011;250;47.712;7.508;2022-09-03T16:31:26;2.63;;;1.70;;